Terminal Aerodrome Forecast
Issued by NWS Lake Charles, LA

Home | Current Version | Previous Version | Text Only | Print | Product List | Glossary On
Versions: 1 2 3 4 5 6 7 8 9 10 11 12
000
FTUS44 KLCH 292327
TAFLCH
TAF
KLCH 292327Z 3000/3024 VRB04KT P6SM VCTS SCT050CB
     FM300100 VRB03KT P6SM SKC
     FM301500 33006KT P6SM FEW030
     FM302100 VRB06KT P6SM VCTS SCT050CB=

USA.gov is the U.S. government's official web portal to all federal, state and local government web resources and services.